Time;durP1;ratioP1;P1;durP2;ratioP2;P2;SDS_P1;SDS_P2;PMS_P1;PMS_P2;Temp;Humidity;BMP_temperature;BMP_pressure;BME280_temperature;BME280_humidity;BME280_pressure;Samples;Min_cycle;Max_cycle;Signal;HPM_P1;HPM_P2
2024/02/29 00:00:31;;;;;;;28.90;9.90;;;3.70;98.00;;;;;;5052273;28;20446;-68
2024/02/29 00:02:58;;;;;;;28.13;10.20;;;3.80;98.00;;;;;;5052255;28;20446;-68
2024/02/29 00:05:26;;;;;;;28.60;10.27;;;3.70;98.00;;;;;;5052173;28;20496;-68
2024/02/29 00:07:53;;;;;;;26.97;9.40;;;3.60;98.00;;;;;;5052355;28;20633;-68
2024/02/29 00:10:22;;;;;;;22.03;9.03;;;3.60;98.00;;;;;;5052212;28;20452;-69
2024/02/29 00:12:49;;;;;;;27.80;10.20;;;3.40;98.00;;;;;;5052402;28;20518;-68
2024/02/29 00:15:16;;;;;;;23.80;9.37;;;3.30;98.00;;;;;;5052094;28;20446;-68
2024/02/29 00:17:42;;;;;;;31.03;10.43;;;3.20;98.00;;;;;;5052281;28;20785;-68
2024/02/29 00:20:10;;;;;;;25.63;10.00;;;3.20;98.00;;;;;;5034671;28;20457;-68
2024/02/29 00:22:38;;;;;;;28.33;9.50;;;3.20;98.00;;;;;;5052416;28;20449;-68
2024/02/29 00:25:05;;;;;;;31.10;10.10;;;3.30;98.00;;;;;;5034447;28;20456;-68
2024/02/29 00:27:34;;;;;;;28.23;10.27;;;3.20;98.00;;;;;;5051412;28;20461;-68
2024/02/29 00:30:01;;;;;;;29.17;10.30;;;3.30;98.00;;;;;;5051883;28;20457;-68
2024/02/29 00:32:28;;;;;;;28.93;9.73;;;3.30;98.00;;;;;;5051703;28;20455;-68
2024/02/29 00:34:56;;;;;;;31.47;10.90;;;3.30;98.00;;;;;;5051544;28;20453;-68
2024/02/29 00:37:23;;;;;;;26.37;10.13;;;3.30;98.00;;;;;;5051790;28;20461;-68
2024/02/29 00:39:50;;;;;;;29.13;10.30;;;3.30;98.00;;;;;;5051553;28;20449;-68
2024/02/29 00:42:18;;;;;;;31.07;10.30;;;3.30;98.00;;;;;;5051634;28;20469;-69
2024/02/29 00:44:46;;;;;;;26.90;9.33;;;3.30;98.00;;;;;;5051352;28;20825;-69
2024/02/29 00:47:13;;;;;;;29.80;9.30;;;3.30;98.00;;;;;;5051381;28;20453;-68
2024/02/29 00:49:41;;;;;;;33.67;10.60;;;3.30;98.00;;;;;;5051479;28;20534;-68
2024/02/29 00:52:08;;;;;;;24.87;9.27;;;3.30;98.00;;;;;;5051588;28;20450;-68
2024/02/29 00:54:35;;;;;;;27.20;10.00;;;3.30;98.00;;;;;;5033677;28;20485;-68
2024/02/29 00:57:03;;;;;;;30.30;9.53;;;3.30;98.00;;;;;;5050701;28;20487;-68
2024/02/29 00:59:30;;;;;;;25.07;9.60;;;3.40;98.00;;;;;;5033827;28;20485;-68
2024/02/29 01:01:58;;;;;;;26.53;9.57;;;3.30;98.00;;;;;;5051270;28;20460;-68
2024/02/29 01:04:25;;;;;;;31.17;9.63;;;3.30;98.00;;;;;;5051278;28;20458;-68
2024/02/29 01:06:52;;;;;;;28.40;9.27;;;3.30;98.00;;;;;;5051583;28;20456;-68
2024/02/29 01:09:25;;;;;;;25.20;9.20;;;3.30;98.00;;;;;;5033512;28;20448;-68
2024/02/29 01:11:52;;;;;;;26.30;9.87;;;3.20;98.00;;;;;;5051470;28;20456;-68
2024/02/29 01:14:19;;;;;;;24.87;9.90;;;3.20;98.00;;;;;;5051188;28;20486;-68
2024/02/29 01:16:46;;;;;;;27.27;10.23;;;3.10;98.00;;;;;;5051481;28;20446;-68
2024/02/29 01:19:14;;;;;;;26.57;10.40;;;2.90;98.00;;;;;;5051529;28;20464;-68
2024/02/29 01:21:43;;;;;;;30.40;10.27;;;2.80;98.00;;;;;;5051108;28;20518;-68
2024/02/29 01:24:10;;;;;;;28.57;9.57;;;2.80;98.00;;;;;;5051400;28;20479;-68
2024/02/29 01:26:37;;;;;;;31.97;10.37;;;2.80;98.00;;;;;;5051360;28;20444;-68
2024/02/29 01:29:04;;;;;;;34.50;10.00;;;2.60;98.00;;;;;;5051293;28;20468;-68
2024/02/29 01:31:32;;;;;;;34.53;9.93;;;2.40;98.00;;;;;;5051279;28;20518;-68
2024/02/29 01:33:59;;;;;;;27.50;10.37;;;2.50;98.00;;;;;;5050870;28;20493;-68
2024/02/29 01:36:27;;;;;;;32.63;10.87;;;2.60;98.00;;;;;;5050935;28;20448;-68
2024/02/29 01:38:54;;;;;;;30.90;9.80;;;2.50;98.00;;;;;;5051360;28;20452;-68
2024/02/29 01:41:22;;;;;;;29.33;9.90;;;2.30;98.00;;;;;;5054874;28;20496;-68
2024/02/29 01:43:53;;;;;;;24.33;9.17;;;2.20;98.00;;;;;;5054991;28;20550;-68
2024/02/29 01:46:21;;;;;;;28.57;8.70;;;2.20;98.00;;;;;;5054936;28;20598;-68
2024/02/29 01:48:49;;;;;;;26.20;9.10;;;2.30;98.00;;;;;;5054807;28;20451;-68
2024/02/29 01:51:18;;;;;;;24.87;8.73;;;2.40;98.00;;;;;;5054976;28;20528;-69
2024/02/29 01:53:46;;;;;;;27.80;9.70;;;2.30;98.00;;;;;;5054606;28;20587;-68
2024/02/29 01:56:14;;;;;;;26.90;9.60;;;2.50;98.00;;;;;;5054570;28;20457;-68
2024/02/29 01:58:41;;;;;;;24.90;9.60;;;2.60;98.00;;;;;;5054452;28;20834;-68
2024/02/29 02:01:09;;;;;;;27.20;9.53;;;2.70;98.00;;;;;;5054813;28;20495;-68
2024/02/29 02:03:41;;;;;;;27.40;9.80;;;2.70;98.00;;;;;;5054174;28;20455;-68
2024/02/29 02:06:08;;;;;;;29.57;10.40;;;2.60;98.00;;;;;;5037633;28;20461;-68
2024/02/29 02:08:36;;;;;;;34.70;10.70;;;2.50;98.00;;;;;;5054667;28;20550;-68
2024/02/29 02:11:04;;;;;;;31.20;10.50;;;2.40;98.00;;;;;;5036945;28;20455;-68
2024/02/29 02:13:31;;;;;;;28.77;10.50;;;2.50;98.00;;;;;;5054280;28;20491;-68
2024/02/29 02:15:58;;;;;;;30.40;10.37;;;2.40;98.00;;;;;;5054175;28;20459;-67
2024/02/29 02:18:25;;;;;;;38.77;10.63;;;2.30;98.00;;;;;;5054384;28;20450;-69
2024/02/29 02:20:55;;;;;;;27.60;9.77;;;2.30;98.00;;;;;;5054400;28;20452;-68
2024/02/29 02:23:22;;;;;;;30.07;9.93;;;2.40;98.00;;;;;;5053091;28;20488;-68
2024/02/29 02:25:51;;;;;;;28.40;9.80;;;2.50;98.00;;;;;;5052580;28;20847;-68
2024/02/29 02:28:19;;;;;;;34.53;10.47;;;2.60;98.00;;;;;;5053023;28;21063;-69
2024/02/29 02:30:47;;;;;;;27.40;10.10;;;2.60;98.00;;;;;;5052539;28;20526;-68
2024/02/29 02:33:15;;;;;;;30.80;9.93;;;2.50;98.00;;;;;;5053234;28;20453;-68
2024/02/29 02:35:43;;;;;;;33.10;10.60;;;2.50;98.00;;;;;;5052382;28;20456;-69
2024/02/29 02:38:11;;;;;;;27.80;9.83;;;2.50;98.00;;;;;;5053075;28;20513;-68
2024/02/29 02:40:39;;;;;;;24.73;8.80;;;2.40;98.00;;;;;;5053220;28;20478;-69
2024/02/29 02:43:06;;;;;;;26.07;9.40;;;2.30;98.00;;;;;;5018083;28;20456;-68
2024/02/29 02:45:33;;;;;;;23.23;9.13;;;2.40;98.00;;;;;;5052472;28;20450;-68
2024/02/29 02:48:01;;;;;;;22.93;9.10;;;2.30;98.00;;;;;;5036217;28;20583;-68
2024/02/29 02:50:29;;;;;;;28.67;9.53;;;2.40;98.00;;;;;;5018573;28;20458;-68
2024/02/29 02:52:56;;;;;;;31.93;10.30;;;2.40;98.00;;;;;;5053700;28;20455;-67
2024/02/29 02:55:24;;;;;;;30.70;9.60;;;2.50;98.00;;;;;;5053283;28;20489;-68
2024/02/29 02:57:51;;;;;;;28.03;9.83;;;2.30;98.00;;;;;;5053463;28;20451;-68
2024/02/29 03:00:18;;;;;;;28.77;9.33;;;2.10;98.00;;;;;;5053358;28;20462;-68
2024/02/29 03:02:45;;;;;;;30.40;10.03;;;2.10;98.00;;;;;;5053040;28;20451;-68
2024/02/29 03:05:13;;;;;;;26.00;9.47;;;2.10;98.00;;;;;;5053238;28;20456;-68
2024/02/29 03:07:40;;;;;;;26.93;9.90;;;2.20;98.00;;;;;;5053222;28;20621;-68
2024/02/29 03:10:09;;;;;;;32.03;9.67;;;2.30;98.00;;;;;;5052770;28;20532;-68
2024/02/29 03:12:41;;;;;;;25.57;9.43;;;2.40;98.00;;;;;;5053100;28;20530;-68
2024/02/29 03:15:09;;;;;;;25.37;9.73;;;2.30;98.00;;;;;;5052957;28;20492;-68
2024/02/29 03:17:36;;;;;;;32.63;11.00;;;2.40;98.00;;;;;;5035521;28;20951;-68
2024/02/29 03:20:08;;;;;;;28.13;9.90;;;2.40;98.00;;;;;;5053041;28;20470;-68
2024/02/29 03:22:35;;;;;;;28.87;10.63;;;2.50;98.00;;;;;;5052721;28;20455;-68
2024/02/29 03:25:03;;;;;;;32.47;9.27;;;2.50;98.00;;;;;;5053049;28;21007;-68
2024/02/29 03:27:30;;;;;;;32.10;9.83;;;2.40;98.00;;;;;;5052778;28;20453;-68
2024/02/29 03:29:59;;;;;;;31.47;10.70;;;2.40;98.00;;;;;;5052993;28;20458;-68
2024/02/29 03:32:26;;;;;;;41.20;11.80;;;2.40;98.00;;;;;;5052969;28;20448;-68
2024/02/29 03:34:53;;;;;;;28.03;10.37;;;2.50;98.00;;;;;;5052440;28;20871;-67
2024/02/29 03:37:20;;;;;;;32.67;9.90;;;2.50;98.00;;;;;;5052773;28;20942;-68
2024/02/29 03:39:49;;;;;;;31.00;9.97;;;2.60;98.00;;;;;;5052871;28;20462;-68
2024/02/29 03:42:17;;;;;;;31.60;10.43;;;2.70;98.00;;;;;;5035417;28;20483;-68
2024/02/29 03:44:45;;;;;;;26.93;8.70;;;2.90;98.00;;;;;;5052618;28;20464;-68
2024/02/29 03:47:15;;;;;;;31.43;9.73;;;2.80;98.00;;;;;;5052722;28;20451;-68
2024/02/29 03:49:44;;;;;;;35.23;10.73;;;2.70;98.00;;;;;;5052648;28;20465;-68
2024/02/29 03:52:11;;;;;;;29.40;9.80;;;2.70;98.00;;;;;;5051959;28;20473;-67
2024/02/29 03:54:38;;;;;;;28.60;9.30;;;2.60;98.00;;;;;;5052484;28;20482;-68
2024/02/29 03:57:05;;;;;;;27.63;9.77;;;2.70;98.00;;;;;;5052553;28;20447;-68
2024/02/29 03:59:32;;;;;;;32.70;10.00;;;2.70;98.00;;;;;;5052021;28;20457;-68
2024/02/29 04:01:59;;;;;;;36.53;10.87;;;2.80;98.00;;;;;;5052039;28;20449;-68
2024/02/29 04:04:28;;;;;;;23.70;9.17;;;2.90;98.00;;;;;;5052412;28;20447;-68
2024/02/29 04:06:56;;;;;;;25.07;8.33;;;2.80;98.00;;;;;;5052518;28;20460;-68
2024/02/29 04:09:24;;;;;;;24.60;8.87;;;2.90;98.00;;;;;;5052296;28;20443;-68
2024/02/29 04:11:52;;;;;;;29.53;9.27;;;2.90;98.00;;;;;;5051870;28;20456;-67
2024/02/29 04:14:19;;;;;;;27.10;8.83;;;2.90;98.00;;;;;;5051398;28;20534;-68
2024/02/29 04:16:46;;;;;;;22.10;9.20;;;2.70;98.00;;;;;;5051415;28;20448;-68
2024/02/29 04:19:13;;;;;;;29.37;9.50;;;2.70;98.00;;;;;;5051366;28;20466;-67
2024/02/29 04:21:46;;;;;;;31.83;10.00;;;2.90;98.00;;;;;;5034166;28;20455;-68
2024/02/29 04:24:13;;;;;;;21.77;9.03;;;2.90;98.00;;;;;;5051777;28;20446;-68
2024/02/29 04:26:40;;;;;;;24.10;8.60;;;2.80;98.00;;;;;;5051756;28;20453;-68
2024/02/29 04:29:07;;;;;;;24.33;8.70;;;2.70;98.00;;;;;;5051908;28;20508;-67
2024/02/29 04:31:34;;;;;;;23.10;8.90;;;2.70;98.00;;;;;;5051595;28;20956;-68
2024/02/29 04:34:01;;;;;;;26.57;9.00;;;2.80;98.00;;;;;;5051624;28;20491;-68
2024/02/29 04:36:29;;;;;;;23.67;8.87;;;2.60;98.00;;;;;;5034032;28;20448;-67
2024/02/29 04:38:57;;;;;;;26.90;8.10;;;2.60;98.00;;;;;;5051701;28;21129;-68
2024/02/29 04:41:24;;;;;;;23.17;7.80;;;2.70;98.00;;;;;;5033966;28;20941;-68
2024/02/29 04:43:53;;;;;;;26.20;9.37;;;2.60;98.00;;;;;;5051680;28;20462;-68
2024/02/29 04:46:20;;;;;;;26.20;9.50;;;2.50;98.00;;;;;;5051385;28;20457;-67
2024/02/29 04:48:47;;;;;;;25.23;9.83;;;2.40;98.00;;;;;;5051506;28;20462;-68
2024/02/29 04:51:14;;;;;;;25.70;9.07;;;2.40;98.00;;;;;;5051541;28;20549;-68
2024/02/29 04:53:41;;;;;;;24.73;9.03;;;2.20;98.00;;;;;;5051569;28;20451;-68
2024/02/29 04:56:10;;;;;;;22.20;8.30;;;2.30;98.00;;;;;;5051489;28;20479;-68
2024/02/29 04:58:37;;;;;;;20.43;7.63;;;2.30;98.00;;;;;;5050825;28;20458;-68
2024/02/29 05:01:05;;;;;;;27.90;8.20;;;2.40;98.00;;;;;;5051380;28;20450;-68
2024/02/29 05:03:33;;;;;;;27.03;9.73;;;2.50;98.00;;;;;;5051423;28;20450;-68
2024/02/29 05:06:00;;;;;;;24.13;8.40;;;2.30;98.00;;;;;;5051524;28;20451;-68
2024/02/29 05:08:27;;;;;;;24.93;8.90;;;2.30;98.00;;;;;;5051313;28;20452;-68
2024/02/29 05:10:55;;;;;;;23.17;8.53;;;2.30;98.00;;;;;;5051423;28;20791;-68
2024/02/29 05:13:24;;;;;;;24.80;8.00;;;2.40;98.00;;;;;;5051428;28;20450;-68
2024/02/29 05:15:51;;;;;;;24.97;9.33;;;2.30;98.00;;;;;;5055479;28;20820;-68
2024/02/29 05:18:18;;;;;;;29.90;9.13;;;2.30;98.00;;;;;;5055367;28;20465;-68
2024/02/29 05:20:45;;;;;;;26.40;9.03;;;2.40;98.00;;;;;;5055304;28;20453;-68
2024/02/29 05:23:13;;;;;;;24.20;8.60;;;2.30;98.00;;;;;;5004812;28;20457;-68
2024/02/29 05:25:40;;;;;;;21.60;8.50;;;2.30;98.00;;;;;;5037614;28;20457;-67
2024/02/29 05:28:07;;;;;;;31.50;9.60;;;2.40;98.00;;;;;;5055431;28;20447;-68
2024/02/29 05:30:35;;;;;;;27.83;9.67;;;2.40;98.00;;;;;;5055130;28;20450;-68
2024/02/29 05:33:02;;;;;;;23.10;8.80;;;2.40;98.00;;;;;;5055118;28;20461;-68
2024/02/29 05:35:30;;;;;;;20.50;8.50;;;2.40;98.00;;;;;;5054971;28;20975;-68
2024/02/29 05:37:58;;;;;;;23.83;8.20;;;2.40;98.00;;;;;;5055328;28;20458;-67
2024/02/29 05:40:26;;;;;;;26.53;9.60;;;2.40;98.00;;;;;;5055201;28;20454;-67
2024/02/29 05:42:53;;;;;;;24.90;8.50;;;2.30;98.00;;;;;;5055316;28;20474;-68
2024/02/29 05:45:20;;;;;;;28.47;9.73;;;2.30;98.00;;;;;;5055089;28;20481;-68
2024/02/29 05:47:50;;;;;;;21.33;8.20;;;2.20;98.00;;;;;;5046472;28;20496;-68
2024/02/29 05:50:17;;;;;;;21.30;7.90;;;2.20;98.00;;;;;;5035276;28;20451;-67
2024/02/29 05:52:45;;;;;;;21.10;8.77;;;2.10;98.00;;;;;;5035148;28;20469;-68
2024/02/29 05:55:13;;;;;;;22.93;8.63;;;2.20;98.00;;;;;;5034908;28;20491;-67
2024/02/29 05:57:43;;;;;;;22.10;8.50;;;2.20;98.00;;;;;;5033905;28;20458;-67
2024/02/29 06:00:10;;;;;;;17.60;7.87;;;2.10;98.00;;;;;;5034784;28;20464;-67
2024/02/29 06:02:38;;;;;;;23.70;7.20;;;2.10;98.00;;;;;;5033500;28;20462;-68
2024/02/29 06:05:08;;;;;;;18.50;8.07;;;2.20;98.00;;;;;;5034121;28;20510;-67
2024/02/29 06:07:36;;;;;;;18.63;8.30;;;2.20;98.00;;;;;;5034775;28;20447;-68
2024/02/29 06:10:04;;;;;;;20.73;8.30;;;1.90;98.00;;;;;;5034669;28;20455;-67
2024/02/29 06:12:32;;;;;;;27.23;8.00;;;1.80;98.00;;;;;;5034602;28;20483;-67
2024/02/29 06:14:59;;;;;;;21.10;8.40;;;1.80;98.00;;;;;;5034235;28;21019;-68
2024/02/29 06:17:26;;;;;;;22.40;8.60;;;1.70;98.00;;;;;;5034417;28;20450;-68
2024/02/29 06:19:56;;;;;;;34.50;8.33;;;1.50;98.00;;;;;;5017023;28;20454;-68
2024/02/29 06:22:26;;;;;;;26.83;8.57;;;1.50;98.00;;;;;;5034061;28;20538;-67
2024/02/29 06:25:03;;;;;;;26.40;8.43;;;1.70;98.00;;;;;;5033345;28;20474;-67
2024/02/29 06:27:30;;;;;;;22.20;8.00;;;1.80;98.00;;;;;;5034297;28;20461;-68
2024/02/29 06:29:57;;;;;;;22.27;8.00;;;1.90;98.00;;;;;;5034349;28;20517;-67
2024/02/29 06:32:24;;;;;;;25.70;8.10;;;1.90;98.00;;;;;;5034411;28;20814;-67
2024/02/29 06:34:52;;;;;;;29.37;8.53;;;1.70;98.00;;;;;;5016375;28;20478;-67
2024/02/29 06:37:19;;;;;;;20.80;8.30;;;1.50;98.00;;;;;;5034247;28;20506;-68
2024/02/29 06:39:48;;;;;;;22.13;8.10;;;1.50;98.00;;;;;;5016343;28;20811;-67
2024/02/29 06:42:15;;;;;;;22.00;8.60;;;1.50;98.00;;;;;;5034235;28;20461;-67
2024/02/29 06:44:42;;;;;;;21.77;7.67;;;1.40;98.00;;;;;;5034059;28;20550;-67
2024/02/29 06:47:09;;;;;;;26.20;8.30;;;1.30;98.00;;;;;;5034168;28;20454;-68
2024/02/29 06:49:36;;;;;;;25.07;8.80;;;1.30;98.00;;;;;;5033919;28;20467;-68
2024/02/29 06:52:03;;;;;;;22.87;8.43;;;1.40;98.00;;;;;;5033724;28;20497;-67
2024/02/29 06:54:30;;;;;;;19.87;8.20;;;1.50;98.00;;;;;;5033841;28;20783;-67
2024/02/29 06:57:00;;;;;;;23.73;8.17;;;1.40;98.00;;;;;;5033840;28;20459;-67
2024/02/29 06:59:27;;;;;;;22.50;8.40;;;1.40;98.00;;;;;;5033996;28;20455;-64
2024/02/29 07:01:54;;;;;;;20.30;8.00;;;1.30;98.00;;;;;;5033939;28;20454;-63
2024/02/29 07:04:22;;;;;;;25.63;9.37;;;1.30;98.00;;;;;;5033602;28;20466;-63
2024/02/29 07:06:49;;;;;;;26.00;9.17;;;1.20;98.00;;;;;;5015796;28;21091;-63
2024/02/29 07:09:17;;;;;;;25.07;8.47;;;1.20;98.00;;;;;;5033736;28;20462;-63
2024/02/29 07:11:45;;;;;;;22.07;7.97;;;1.20;98.00;;;;;;5033665;28;20532;-63
2024/02/29 07:14:14;;;;;;;23.37;8.43;;;1.20;98.00;;;;;;5033580;28;20458;-63
2024/02/29 07:16:42;;;;;;;26.33;9.07;;;1.30;98.00;;;;;;5033160;28;20491;-64
2024/02/29 07:19:09;;;;;;;22.80;8.70;;;1.50;98.00;;;;;;5032991;28;20455;-63
2024/02/29 07:21:37;;;;;;;31.53;10.07;;;1.50;98.00;;;;;;5033331;28;20933;-63
2024/02/29 07:24:04;;;;;;;28.63;9.30;;;1.60;98.00;;;;;;5033139;28;20497;-63
2024/02/29 07:26:32;;;;;;;29.80;9.50;;;1.60;98.00;;;;;;5032622;28;20455;-63
2024/02/29 07:28:59;;;;;;;32.67;10.27;;;1.80;98.00;;;;;;5013506;28;20538;-63
2024/02/29 07:31:28;;;;;;;23.20;8.70;;;1.80;98.00;;;;;;4996079;28;20459;-64
2024/02/29 07:33:55;;;;;;;22.63;8.63;;;2.00;98.00;;;;;;5013494;28;20475;-64
2024/02/29 07:36:23;;;;;;;23.83;8.60;;;1.90;98.00;;;;;;5012844;28;20484;-64
2024/02/29 07:38:50;;;;;;;19.07;7.80;;;1.90;98.00;;;;;;5012200;28;20452;-63
2024/02/29 07:41:17;;;;;;;25.83;9.20;;;2.00;98.00;;;;;;5013553;28;20459;-64
2024/02/29 07:43:44;;;;;;;24.00;8.70;;;2.00;98.00;;;;;;5013630;28;20776;-63
2024/02/29 07:46:11;;;;;;;23.63;8.33;;;2.10;98.00;;;;;;5013340;28;20510;-64
2024/02/29 07:48:39;;;;;;;24.97;9.47;;;2.30;98.00;;;;;;5013083;28;20469;-63
2024/02/29 07:51:06;;;;;;;25.10;9.30;;;2.30;98.00;;;;;;5013472;28;20452;-63
2024/02/29 07:53:33;;;;;;;27.37;9.53;;;2.40;98.00;;;;;;5012954;28;20456;-63
2024/02/29 07:56:05;;;;;;;36.13;9.37;;;2.50;98.00;;;;;;4995353;28;20484;-64
2024/02/29 07:58:33;;;;;;;24.27;8.63;;;2.60;98.00;;;;;;5012941;28;20491;-64
2024/02/29 08:01:02;;;;;;;25.23;9.63;;;2.50;98.00;;;;;;5012876;28;20458;-64
2024/02/29 08:03:30;;;;;;;26.73;9.80;;;2.60;98.00;;;;;;5012779;28;20464;-63
2024/02/29 08:05:59;;;;;;;25.53;9.27;;;2.60;98.00;;;;;;4995305;28;20484;-64
2024/02/29 08:08:29;;;;;;;20.37;8.20;;;2.70;98.00;;;;;;5017773;28;20463;-64
2024/02/29 08:15:51;;;;;;;24.67;9.87;;;3.00;98.00;;;;;;5030021;28;20496;-64
2024/02/29 08:18:19;;;;;;;28.00;10.10;;;3.20;98.00;;;;;;5031412;28;20476;-64
2024/02/29 08:20:46;;;;;;;24.67;9.57;;;3.20;98.00;;;;;;5014005;28;20817;-64
2024/02/29 08:23:15;;;;;;;28.17;10.00;;;3.20;98.00;;;;;;5031000;28;20461;-64
2024/02/29 08:25:45;;;;;;;30.73;8.90;;;3.10;98.00;;;;;;5032126;28;20460;-64
2024/02/29 08:28:12;;;;;;;31.87;11.00;;;3.30;98.00;;;;;;5032088;28;20531;-64
2024/02/29 08:30:39;;;;;;;27.57;10.10;;;3.40;98.00;;;;;;5031384;28;20497;-64
2024/02/29 08:33:06;;;;;;;27.97;10.37;;;3.40;98.00;;;;;;5031423;28;20536;-64
2024/02/29 08:35:33;;;;;;;28.90;9.73;;;3.40;98.00;;;;;;5030088;28;20518;-63
2024/02/29 08:38:00;;;;;;;15.20;6.47;;;3.40;98.00;;;;;;5013386;28;20820;-63
2024/02/29 08:40:29;;;;;;;33.53;11.80;;;4.20;98.00;;;;;;5031148;28;21148;-64
2024/02/29 08:42:56;;;;;;;26.53;9.67;;;4.50;98.00;;;;;;5032068;28;20454;-63
2024/02/29 08:45:23;;;;;;;29.43;10.17;;;4.50;98.00;;;;;;5031411;28;20461;-64
2024/02/29 08:47:51;;;;;;;29.30;10.33;;;4.50;98.00;;;;;;5033470;28;20494;-64
2024/02/29 08:50:18;;;;;;;33.00;10.37;;;4.50;98.00;;;;;;5051636;28;20451;-63
2024/02/29 08:52:45;;;;;;;28.20;10.70;;;4.60;98.00;;;;;;5051105;28;21271;-64
2024/02/29 08:55:13;;;;;;;30.80;10.53;;;4.60;98.00;;;;;;5050239;28;20460;-65
2024/02/29 08:57:41;;;;;;;33.77;11.37;;;4.60;98.00;;;;;;5051594;28;20459;-63
2024/02/29 09:00:09;;;;;;;35.77;11.73;;;4.70;98.00;;;;;;5051418;28;20453;-63
2024/02/29 09:02:36;;;;;;;33.80;11.70;;;4.80;98.00;;;;;;5050219;28;20467;-64
2024/02/29 09:05:04;;;;;;;35.17;11.13;;;4.90;98.00;;;;;;5049493;28;20845;-64
2024/02/29 09:07:31;;;;;;;32.50;11.63;;;5.00;98.00;;;;;;5049506;28;20451;-67
2024/02/29 09:09:58;;;;;;;34.90;12.30;;;5.10;98.00;;;;;;5031574;28;20454;-64
2024/02/29 09:12:27;;;;;;;42.53;12.87;;;5.30;98.00;;;;;;5049448;28;20448;-64
2024/02/29 09:14:56;;;;;;;35.07;12.37;;;5.40;98.00;;;;;;5050197;28;20788;-62
2024/02/29 09:17:29;;;;;;;33.37;12.43;;;5.60;98.00;;;;;;5050822;28;20990;-65
2024/02/29 09:19:56;;;;;;;32.47;11.67;;;5.80;98.00;;;;;;5051382;28;20514;-64
2024/02/29 09:22:23;;;;;;;33.73;12.00;;;5.90;98.00;;;;;;5049071;28;20532;-64
2024/02/29 09:24:50;;;;;;;36.90;11.93;;;6.00;98.00;;;;;;5031531;28;21112;-64
2024/02/29 09:27:17;;;;;;;32.00;12.43;;;6.10;98.00;;;;;;5037334;28;20462;-65
2024/02/29 09:29:45;;;;;;;37.50;12.90;;;6.10;98.00;;;;;;5051530;28;20564;-64
2024/02/29 09:32:20;;;;;;;40.90;13.00;;;6.20;98.00;;;;;;5050906;28;20465;-64
2024/02/29 09:34:47;;;;;;;33.43;12.27;;;6.40;98.00;;;;;;5017011;28;20841;-64
2024/02/29 09:37:14;;;;;;;37.47;13.87;;;6.60;98.00;;;;;;5050635;28;20482;-64
2024/02/29 09:39:44;;;;;;;38.00;13.20;;;6.70;98.00;;;;;;5051083;28;20452;-64
2024/02/29 09:42:11;;;;;;;37.33;12.53;;;6.90;98.00;;;;;;5051098;28;20460;-64
2024/02/29 09:44:39;;;;;;;24.17;8.87;;;7.00;98.00;;;;;;5051093;28;20465;-64
2024/02/29 09:47:06;;;;;;;41.23;13.83;;;7.50;98.00;;;;;;5022459;28;20862;-65
2024/02/29 09:49:35;;;;;;;37.67;13.53;;;8.00;98.00;;;;;;5031117;28;20456;-64
2024/02/29 09:52:02;;;;;;;38.70;14.40;;;8.20;98.00;;;;;;5013600;28;20463;-65
2024/02/29 09:54:33;;;;;;;37.63;12.67;;;8.30;98.00;;;;;;5031322;28;20458;-65
2024/02/29 09:57:01;;;;;;;39.53;14.20;;;8.60;98.00;;;;;;5030843;28;20484;-65
2024/02/29 09:59:30;;;;;;;42.23;15.10;;;8.80;98.00;;;;;;5030759;28;20461;-65
2024/02/29 10:01:57;;;;;;;39.23;14.47;;;9.00;98.00;;;;;;5033833;28;20461;-65
2024/02/29 10:04:26;;;;;;;43.50;12.93;;;9.10;98.00;;;;;;5034432;28;20454;-65
2024/02/29 10:06:55;;;;;;;41.13;14.20;;;9.20;98.00;;;;;;5034586;28;20485;-65
2024/02/29 10:09:22;;;;;;;40.60;13.97;;;9.50;98.00;;;;;;5034558;28;20476;-65
2024/02/29 10:11:49;;;;;;;37.17;13.40;;;9.70;98.00;;;;;;5034492;28;20995;-65
2024/02/29 10:14:20;;;;;;;37.43;14.00;;;9.90;98.00;;;;;;5034211;28;20461;-65
2024/02/29 10:16:51;;;;;;;41.20;14.23;;;10.00;98.00;;;;;;5034209;28;20510;-65
2024/02/29 10:19:19;;;;;;;42.67;14.73;;;10.20;98.00;;;;;;5034346;28;21016;-65
2024/02/29 10:21:46;;;;;;;35.90;13.40;;;10.30;98.00;;;;;;5034267;28;20455;-65
2024/02/29 10:24:15;;;;;;;34.37;13.10;;;10.50;98.00;;;;;;5034403;28;20452;-65
2024/02/29 10:26:42;;;;;;;34.90;13.27;;;10.60;98.00;;;;;;5016465;28;20458;-65
2024/02/29 10:29:10;;;;;;;35.93;13.70;;;10.80;98.00;;;;;;5016427;28;20941;-65
2024/02/29 10:31:38;;;;;;;41.73;15.13;;;11.00;98.00;;;;;;5033533;28;20458;-65
2024/02/29 10:34:05;;;;;;;41.33;15.80;;;11.20;98.00;;;;;;5034194;28;20518;-65
2024/02/29 10:36:33;;;;;;;39.60;13.93;;;11.30;98.00;;;;;;5033929;28;20478;-65
2024/02/29 10:39:00;;;;;;;38.87;14.60;;;11.30;98.00;;;;;;5034130;28;21042;-65
2024/02/29 10:41:31;;;;;;;43.10;15.20;;;11.40;98.00;;;;;;5033572;28;20515;-65
2024/02/29 10:44:03;;;;;;;45.47;16.00;;;11.60;98.00;;;;;;5033855;28;20892;-65
2024/02/29 10:46:31;;;;;;;38.57;14.77;;;11.80;98.00;;;;;;5016484;28;20457;-65
2024/02/29 10:49:04;;;;;;;48.30;17.53;;;11.90;98.00;;;;;;5038796;28;20512;-65
2024/02/29 10:51:43;;;;;;;40.10;14.57;;;12.10;98.00;;;;;;5229686;22;20514;-65
2024/02/29 10:54:16;;;;;;;44.23;15.80;;;12.10;98.00;;;;;;5033125;28;20457;-65
2024/02/29 10:56:46;;;;;;;48.40;15.00;;;11.90;98.00;;;;;;5033058;28;20493;-65
2024/02/29 10:59:16;;;;;;;37.17;13.90;;;11.80;98.00;;;;;;5032937;28;20501;-65
2024/02/29 11:01:44;;;;;;;35.90;13.20;;;11.60;98.00;;;;;;5032983;28;20513;-65
2024/02/29 11:04:11;;;;;;;39.13;14.77;;;11.40;98.00;;;;;;5032899;28;20458;-65
2024/02/29 11:06:42;;;;;;;35.20;13.27;;;11.40;98.00;;;;;;5032813;28;20462;-65
2024/02/29 11:09:10;;;;;;;34.70;13.50;;;11.30;98.00;;;;;;5032822;28;20889;-65
2024/02/29 11:11:39;;;;;;;33.80;12.93;;;11.20;98.00;;;;;;5032327;28;20462;-65
2024/02/29 11:14:11;;;;;;;33.40;13.27;;;11.20;98.00;;;;;;5014945;28;20505;-65
2024/02/29 11:16:39;;;;;;;29.43;12.67;;;11.20;98.00;;;;;;5032584;28;20823;-65
2024/02/29 11:19:07;;;;;;;32.27;12.00;;;11.20;98.00;;;;;;5025532;28;20978;-65
2024/02/29 11:21:35;;;;;;;30.00;11.67;;;11.60;98.00;;;;;;5012978;28;20457;-65
2024/02/29 11:24:03;;;;;;;26.03;10.43;;;11.80;98.00;;;;;;5013060;28;20984;-65
2024/02/29 11:26:32;;;;;;;26.00;10.40;;;11.90;98.00;;;;;;5012921;28;20918;-65
2024/02/29 11:29:00;;;;;;;31.77;11.43;;;12.10;98.00;;;;;;5012486;28;20553;-65
2024/02/29 11:31:28;;;;;;;27.83;11.40;;;12.70;98.00;;;;;;4995176;28;20524;-66
2024/02/29 11:33:56;;;;;;;26.33;10.90;;;13.20;98.00;;;;;;5012399;28;20453;-65
2024/02/29 11:36:26;;;;;;;33.30;11.37;;;13.30;98.00;;;;;;5012331;28;20518;-65
2024/02/29 11:38:55;;;;;;;27.77;10.53;;;13.30;98.00;;;;;;5012520;28;20502;-65
2024/02/29 11:41:23;;;;;;;22.80;10.07;;;13.10;98.00;;;;;;5012326;28;20465;-65
2024/02/29 11:43:50;;;;;;;27.00;10.20;;;13.10;98.00;;;;;;5012239;28;20452;-65
2024/02/29 11:46:17;;;;;;;28.60;11.57;;;13.10;98.00;;;;;;4994863;28;20754;-65
2024/02/29 11:48:48;;;;;;;27.00;10.37;;;13.00;98.00;;;;;;5012219;28;20454;-65
2024/02/29 11:51:16;;;;;;;25.33;10.37;;;13.10;98.00;;;;;;5011996;28;20463;-65
2024/02/29 11:53:45;;;;;;;24.80;9.87;;;13.20;98.00;;;;;;5012115;28;21095;-65
2024/02/29 11:56:12;;;;;;;27.43;10.50;;;13.40;98.00;;;;;;5012001;28;20457;-65
2024/02/29 11:58:40;;;;;;;23.47;9.43;;;13.50;98.00;;;;;;5011919;28;21034;-65
2024/02/29 12:01:11;;;;;;;27.03;9.53;;;13.50;98.00;;;;;;5012396;28;20457;-65
2024/02/29 12:03:38;;;;;;;25.13;9.57;;;14.00;98.00;;;;;;5011998;28;20455;-65
2024/02/29 12:06:07;;;;;;;25.70;10.00;;;14.30;98.00;;;;;;5011961;28;20462;-65
2024/02/29 12:08:35;;;;;;;25.47;10.20;;;14.30;98.00;;;;;;4994573;28;20485;-65
2024/02/29 12:11:02;;;;;;;21.90;8.90;;;14.60;98.00;;;;;;4994575;28;20882;-65
2024/02/29 12:13:30;;;;;;;21.30;9.50;;;14.40;98.00;;;;;;5015917;28;20450;-65
2024/02/29 12:15:58;;;;;;;24.33;9.90;;;14.10;98.00;;;;;;5011853;28;20460;-66
2024/02/29 12:18:25;;;;;;;22.87;9.70;;;14.10;98.00;;;;;;5011645;28;20487;-65
2024/02/29 12:20:52;;;;;;;20.87;9.37;;;14.50;98.00;;;;;;5011841;28;20871;-65
2024/02/29 12:23:21;;;;;;;24.23;9.30;;;14.60;98.00;;;;;;5011510;28;20461;-65
2024/02/29 12:25:48;;;;;;;22.10;8.93;;;14.80;98.00;;;;;;5011809;28;20956;-65
2024/02/29 12:28:16;;;;;;;27.80;9.53;;;14.90;98.00;;;;;;5011882;28;20455;-65
2024/02/29 12:30:43;;;;;;;22.57;9.33;;;15.20;98.00;;;;;;5011662;28;20934;-65
2024/02/29 12:33:12;;;;;;;23.90;10.17;;;15.50;98.00;;;;;;5011757;28;20455;-65
2024/02/29 12:35:42;;;;;;;24.43;9.27;;;15.80;98.00;;;;;;5011649;28;20546;-64
2024/02/29 12:38:15;;;;;;;22.13;9.60;;;16.10;98.00;;;;;;5011574;28;21115;-65
2024/02/29 12:40:45;;;;;;;22.90;9.50;;;16.40;98.00;;;;;;5011583;28;20860;-65
2024/02/29 12:43:15;;;;;;;22.03;9.97;;;16.70;98.00;;;;;;5011786;28;20447;-65
2024/02/29 12:45:43;;;;;;;22.50;10.07;;;16.90;98.00;;;;;;4994158;28;21000;-64
2024/02/29 12:48:10;;;;;;;25.73;9.80;;;17.00;98.00;;;;;;5011607;28;20542;-65